createdAt,value
2019-01-11T00:01:42.089Z,96674.88
2019-01-11T00:04:32.084Z,96673.13
2019-01-11T00:07:15.191Z,96674.77
2019-01-11T00:10:05.597Z,96672.23
2019-01-11T00:12:53.405Z,96656.55
2019-01-11T00:15:43.716Z,96671.91
2019-01-11T00:18:26.484Z,96669.97
2019-01-11T00:21:16.283Z,96672.65
2019-01-11T00:23:58.818Z,96672.52
2019-01-11T00:26:49.999Z,96664.73
2019-01-11T00:29:36.954Z,96672.47
2019-01-11T00:32:27.105Z,96668.09
2019-01-11T00:35:10.050Z,96673.03
2019-01-11T00:37:59.813Z,96649.50
2019-01-11T00:40:42.823Z,96652.53
2019-01-11T00:43:32.654Z,96675.19
2019-01-11T00:46:15.138Z,96650.45
2019-01-11T00:49:05.200Z,96678.99
2019-01-11T00:51:47.812Z,96675.11
2019-01-11T00:54:37.603Z,96675.64
2019-01-11T00:57:20.175Z,96675.48
2019-01-11T01:00:14.215Z,96682.97
2019-01-11T01:02:56.328Z,96680.58
2019-01-11T01:05:46.188Z,96683.99
2019-01-11T01:08:30.595Z,96662.81
2019-01-11T01:11:20.372Z,96684.58
2019-01-11T01:14:02.640Z,96681.56
2019-01-11T01:16:52.410Z,96689.75
2019-01-11T01:25:22.722Z,96693.05
2019-01-11T01:28:12.482Z,96702.76
2019-01-11T01:31:02.247Z,96707.03
2019-01-11T01:33:45.110Z,96705.20
2019-01-11T01:36:34.818Z,96710.34
2019-01-11T01:39:18.104Z,96710.61
2019-01-11T01:42:08.196Z,96713.61
2019-01-11T01:44:55.080Z,96720.14
2019-01-11T01:47:45.233Z,96726.88
2019-01-11T01:50:29.105Z,96725.48
2019-01-11T01:53:18.880Z,96719.53
2019-01-11T01:56:01.186Z,96726.33
2019-01-11T01:58:51.804Z,96711.83
2019-01-11T02:01:34.209Z,96709.95
2019-01-11T02:04:23.992Z,96711.77
2019-01-11T02:10:03.182Z,96738.28
2019-01-11T02:12:53.034Z,96722.72
2019-01-11T02:15:42.982Z,96734.05
2019-01-11T02:18:32.811Z,96713.84
2019-01-11T02:21:22.636Z,96734.91
2019-01-11T02:24:12.448Z,96720.72
2019-01-11T02:27:02.216Z,96744.08
2019-01-11T02:30:04.960Z,96726.63
2019-01-11T02:32:52.437Z,96740.74
2019-01-11T02:35:39.016Z,96741.72
2019-01-11T02:38:22.116Z,96729.80
2019-01-11T02:41:11.864Z,96739.17
2019-01-11T02:43:54.310Z,96735.38
2019-01-11T02:46:44.137Z,96731.36
2019-01-11T02:49:26.474Z,96736.10
2019-01-11T02:52:16.513Z,96731.77
2019-01-11T02:55:02.770Z,96726.95
2019-01-11T02:57:52.576Z,96730.80
2019-01-11T03:00:38.492Z,96732.77
2019-01-11T03:03:28.404Z,96735.16
2019-01-11T03:06:11.587Z,96723.11
2019-01-11T03:09:01.340Z,96707.41
2019-01-11T03:11:47.450Z,96724.94
2019-01-11T03:14:37.235Z,96721.64
2019-01-11T03:17:19.828Z,96729.00
2019-01-11T03:20:09.736Z,96724.14
2019-01-11T03:22:52.681Z,96724.71
2019-01-11T03:25:43.252Z,96720.23
2019-01-11T03:37:34.723Z,96722.77
2019-01-11T03:40:18.498Z,96721.27
2019-01-11T03:43:08.423Z,96722.72
2019-01-11T03:45:58.411Z,96721.99
2019-01-11T03:48:49.080Z,96722.36
2019-01-11T03:51:38.863Z,96725.30
2019-01-11T03:54:28.707Z,96706.71
2019-01-11T03:57:18.858Z,96729.59
2019-01-11T04:00:12.037Z,96730.97
2019-01-11T04:02:54.129Z,96722.11
2019-01-11T04:05:44.052Z,96735.23
2019-01-11T04:08:33.909Z,96738.08
2019-01-11T04:11:23.733Z,96739.52
2019-01-11T04:17:17.700Z,96741.65
2019-01-11T04:20:02.162Z,96721.80
2019-01-11T04:23:10.380Z,96742.66
2019-01-11T04:26:01.125Z,96738.09
2019-01-11T04:28:50.939Z,96743.70
2019-01-11T04:31:41.051Z,96742.04
2019-01-11T04:34:43.201Z,96748.86
2019-01-11T04:37:26.539Z,96755.17
2019-01-11T04:40:18.355Z,96747.47
2019-01-11T04:43:00.715Z,96753.20
2019-01-11T04:45:50.498Z,96748.80
2019-01-11T04:48:32.497Z,96749.70
2019-01-11T04:51:23.448Z,96734.13
2019-01-11T04:54:06.400Z,96751.78
2019-01-11T04:56:56.142Z,96734.09
2019-01-11T04:59:38.453Z,96731.22
2019-01-11T05:02:28.181Z,96761.51
2019-01-11T05:05:12.619Z,96756.59
2019-01-11T05:08:02.405Z,96765.95
2019-01-11T05:10:44.574Z,96766.31
2019-01-11T05:13:53.563Z,96767.82
2019-01-11T05:16:39.574Z,96763.58
2019-01-11T05:19:27.871Z,96761.47
2019-01-11T05:22:10.141Z,96765.69
2019-01-11T05:24:59.966Z,96766.66
2019-01-11T05:27:43.991Z,96766.06
2019-01-11T05:30:33.721Z,96766.68
2019-01-11T05:33:20.158Z,96762.15
2019-01-11T05:39:33.405Z,96752.45
2019-01-11T05:42:24.167Z,96751.05
2019-01-11T05:45:14.127Z,96753.41
2019-01-11T05:48:03.936Z,96737.52
2019-01-11T05:50:53.696Z,96754.06
2019-01-11T05:53:36.274Z,96751.97
2019-01-11T05:59:48.849Z,96752.02
2019-01-11T06:02:33.680Z,96761.90
2019-01-11T06:05:23.802Z,96753.41
2019-01-11T06:08:15.920Z,96760.03
2019-01-11T06:11:05.994Z,96772.03
2019-01-11T06:13:48.088Z,96774.63
2019-01-11T06:16:37.864Z,96771.34
2019-01-11T06:19:19.980Z,96761.02
2019-01-11T06:22:09.739Z,96775.48
2019-01-11T06:24:52.436Z,96779.17
2019-01-11T06:27:23.156Z,96779.84
2019-01-11T06:30:14.324Z,96779.13
2019-01-11T06:32:58.224Z,96787.61
2019-01-11T06:35:40.228Z,96791.72
2019-01-11T06:38:42.380Z,96792.39
2019-01-11T06:41:27.344Z,96789.39
2019-01-11T06:44:17.166Z,96789.31
2019-01-11T06:47:00.634Z,96782.73
2019-01-11T06:49:50.363Z,96772.15
2019-01-11T06:52:33.326Z,96793.73
2019-01-11T06:55:42.178Z,96790.08
2019-01-11T06:58:24.256Z,96796.41
2019-01-11T07:01:14.003Z,96797.30
2019-01-11T07:03:56.390Z,96791.52
2019-01-11T07:06:46.158Z,96780.77
2019-01-11T07:09:28.492Z,96807.98
2019-01-11T07:15:21.293Z,96815.03
2019-01-11T07:18:11.121Z,96798.19
2019-01-11T07:20:55.492Z,96824.67
2019-01-11T07:23:45.198Z,96821.36
2019-01-11T07:26:27.899Z,96807.43
2019-01-11T07:29:17.658Z,96824.42
2019-01-11T07:32:03.875Z,96822.87
2019-01-11T07:34:53.663Z,96794.60
2019-01-11T07:37:36.527Z,96798.88
2019-01-11T07:40:26.286Z,96830.07
2019-01-11T07:49:09.514Z,96829.86
2019-01-11T07:51:59.362Z,96827.41
2019-01-11T07:54:42.122Z,96835.97
2019-01-11T08:00:35.059Z,96830.72
2019-01-11T08:06:26.559Z,96831.75
2019-01-11T08:09:16.303Z,96832.94
2019-01-11T08:11:59.037Z,96828.13
2019-01-11T08:14:48.768Z,96823.98
2019-01-11T08:17:30.951Z,96819.31
2019-01-11T08:20:20.751Z,96826.83
2019-01-11T08:23:03.224Z,96826.83
2019-01-11T08:25:53.031Z,96824.45
2019-01-11T08:28:42.804Z,96808.13
2019-01-11T08:31:25.531Z,96812.40
2019-01-11T08:34:15.277Z,96830.72
2019-01-11T08:40:01.182Z,96814.78
2019-01-11T08:42:45.136Z,96830.27
2019-01-11T08:45:34.965Z,96832.66
2019-01-11T08:48:37.919Z,96825.13
2019-01-11T08:51:20.917Z,96831.05
2019-01-11T08:54:10.661Z,96839.34
2019-01-11T08:56:52.937Z,96833.87
2019-01-11T08:59:42.641Z,96833.14
2019-01-11T09:02:25.199Z,96831.31
2019-01-11T09:05:14.945Z,96835.61
2019-01-11T09:08:01.231Z,96840.50
2019-01-11T09:10:50.965Z,96838.57
2019-01-11T09:13:33.688Z,96839.84
2019-01-11T09:16:23.436Z,96844.24
2019-01-11T09:19:06.909Z,96842.78
2019-01-11T09:21:56.627Z,96844.75
2019-01-11T09:24:46.367Z,96851.52
2019-01-11T09:27:28.843Z,96857.13
2019-01-11T09:30:18.601Z,96847.55
2019-01-11T09:33:00.855Z,96830.92
2019-01-11T09:35:50.959Z,96852.91
2019-01-11T09:38:53.688Z,96846.27
2019-01-11T09:41:35.786Z,96858.02
2019-01-11T09:44:44.649Z,96858.11
2019-01-11T09:47:28.248Z,96847.14
2019-01-11T09:50:18.012Z,96852.61
2019-01-11T09:53:00.138Z,96854.59
2019-01-11T09:55:49.885Z,96848.22
2019-01-11T09:58:36.065Z,96851.30
2019-01-11T10:01:25.818Z,96851.76
2019-01-11T10:04:10.216Z,96851.44
2019-01-11T10:10:18.963Z,96852.78
2019-01-11T10:13:08.732Z,96858.88
2019-01-11T10:15:51.053Z,96852.50
2019-01-11T10:18:40.855Z,96860.37
2019-01-11T10:21:30.656Z,96861.95
2019-01-11T10:24:14.717Z,96853.61
2019-01-11T10:26:59.013Z,96854.03
2019-01-11T10:29:48.884Z,96848.36
2019-01-11T10:32:38.650Z,96821.45
2019-01-11T10:35:41.764Z,96844.80
2019-01-11T10:38:24.820Z,96842.98
2019-01-11T10:41:14.527Z,96852.70
2019-01-11T10:44:00.774Z,96856.81
2019-01-11T10:46:50.509Z,96843.21
2019-01-11T10:49:32.826Z,96845.95
2019-01-11T10:52:22.609Z,96850.02
2019-01-11T10:55:05.480Z,96842.45
2019-01-11T10:57:55.311Z,96840.88
2019-01-11T11:00:45.179Z,96832.77
2019-01-11T11:03:34.967Z,96838.06
2019-01-11T11:06:43.816Z,96806.75
2019-01-11T11:09:33.563Z,96824.99
2019-01-11T11:15:19.832Z,96822.63
2019-01-11T11:18:09.558Z,96801.20
2019-01-11T11:20:59.400Z,96826.08
2019-01-11T11:23:43.272Z,96822.08
2019-01-11T11:26:33.076Z,96819.51
2019-01-11T11:35:35.614Z,96815.79
2019-01-11T11:38:25.508Z,96792.25
2019-01-11T11:41:07.879Z,96815.13
2019-01-11T11:43:58.038Z,96813.11
2019-01-11T11:46:44.216Z,96812.05
2019-01-11T11:49:34.128Z,96806.30
2019-01-11T11:52:16.928Z,96805.70
2019-01-11T11:55:07.130Z,96803.08
2019-01-11T11:57:50.252Z,96799.63
2019-01-11T12:00:39.992Z,96802.14
2019-01-11T12:03:23.434Z,96804.06
2019-01-11T12:06:13.182Z,96804.40
2019-01-11T12:08:57.770Z,96804.97
2019-01-11T12:11:47.504Z,96783.89
2019-01-11T12:14:29.523Z,96774.93
2019-01-11T12:17:19.272Z,96783.02
2019-01-11T12:20:01.808Z,96766.20
2019-01-11T12:22:51.552Z,96779.52
2019-01-11T12:25:33.914Z,96768.98
2019-01-11T12:28:23.694Z,96774.25
2019-01-11T12:31:06.008Z,96777.64
2019-01-11T12:33:55.781Z,96756.94
2019-01-11T12:36:41.845Z,96775.23
2019-01-11T12:39:31.544Z,96779.28
2019-01-11T12:42:14.114Z,96782.70
2019-01-11T12:45:04.612Z,96782.55
2019-01-11T12:47:47.284Z,96785.34
2019-01-11T12:50:24.615Z,96788.56
2019-01-11T12:53:14.360Z,96786.19
2019-01-11T12:55:56.783Z,96790.19
2019-01-11T12:58:46.588Z,96768.30
2019-01-11T13:01:50.088Z,96792.33
2019-01-11T13:04:34.877Z,96795.99
2019-01-11T13:07:24.965Z,96797.09
2019-01-11T13:10:08.051Z,96790.09
2019-01-11T13:12:57.818Z,96804.34
2019-01-11T13:15:40.766Z,96792.25
2019-01-11T13:18:30.566Z,96783.16
2019-01-11T13:21:17.072Z,96783.97
2019-01-11T13:24:07.425Z,96780.15
2019-01-11T13:26:50.227Z,96760.06
2019-01-11T13:29:40.021Z,96779.44
2019-01-11T13:32:26.183Z,96780.09
2019-01-11T13:35:16.026Z,96784.27
2019-01-11T13:38:02.530Z,96781.06
2019-01-11T13:41:11.659Z,96775.52
2019-01-11T13:43:55.876Z,96778.68
2019-01-11T13:46:45.756Z,96779.80
2019-01-11T13:49:32.265Z,96784.05
2019-01-11T13:52:22.221Z,96763.72
2019-01-11T13:55:08.960Z,96765.02
2019-01-11T13:57:58.791Z,96780.82
2019-01-11T14:00:42.856Z,96782.88
2019-01-11T14:03:32.979Z,96768.41
2019-01-11T14:06:15.745Z,96766.66
2019-01-11T14:12:24.884Z,96761.89
2019-01-11T14:15:06.983Z,96765.73
2019-01-11T14:17:56.809Z,96772.28
2019-01-11T14:20:46.631Z,96779.80
2019-01-11T14:23:50.196Z,96761.48
2019-01-11T14:26:34.625Z,96777.95
2019-01-11T14:29:24.390Z,96784.69
2019-01-11T14:32:07.600Z,96785.39
2019-01-11T14:34:57.368Z,96784.37
2019-01-11T14:37:39.534Z,96789.11
2019-01-11T14:40:30.116Z,96790.79
2019-01-11T14:43:14.092Z,96793.66
2019-01-11T14:46:03.813Z,96790.13
2019-01-11T14:48:46.375Z,96790.31
2019-01-11T14:51:36.194Z,96783.92
2019-01-11T14:54:20.949Z,96792.59
2019-01-11T14:57:10.711Z,96784.06
2019-01-11T14:59:52.842Z,96767.55
2019-01-11T15:02:42.685Z,96786.86
2019-01-11T15:05:24.777Z,96785.43
2019-01-11T15:08:14.564Z,96794.95
2019-01-11T15:10:56.963Z,96783.80
2019-01-11T15:13:47.012Z,96778.56
2019-01-11T15:16:29.942Z,96792.64
2019-01-11T15:19:20.006Z,96788.34
2019-01-11T15:22:02.889Z,96780.86
2019-01-11T15:24:53.569Z,96775.74
2019-01-11T15:27:43.682Z,96762.75
2019-01-11T15:30:30.272Z,96787.35
2019-01-11T15:33:17.418Z,96774.14
2019-01-11T15:36:00.720Z,96794.72
2019-01-11T15:38:50.548Z,96804.91
2019-01-11T15:41:40.348Z,96821.55
2019-01-11T15:44:30.180Z,96802.70
2019-01-11T15:47:14.434Z,96787.83
2019-01-11T15:50:16.362Z,96773.22
2019-01-11T15:53:05.917Z,96798.34
2019-01-11T15:55:53.425Z,96787.36
2019-01-11T15:58:36.118Z,96786.28
2019-01-11T16:04:23.845Z,96807.85
2019-01-11T16:07:13.678Z,96812.86
2019-01-11T16:13:26.355Z,96810.78
2019-01-11T16:16:54.224Z,96816.50
2019-01-11T16:25:45.980Z,96805.17
2019-01-11T16:28:28.139Z,96807.73
2019-01-11T16:31:17.994Z,96801.69
2019-01-11T16:34:09.842Z,96792.09
2019-01-11T16:36:57.041Z,96796.39
2019-01-11T16:39:41.383Z,96788.95
2019-01-11T16:42:31.487Z,96806.77
2019-01-11T16:48:17.279Z,96816.02
2019-01-11T16:51:07.080Z,96826.91
2019-01-11T16:53:49.249Z,96838.09
2019-01-11T16:56:39.063Z,96824.22
2019-01-11T16:59:28.851Z,96818.60
2019-01-11T17:02:18.615Z,96813.72
2019-01-11T17:08:04.358Z,96809.09
2019-01-11T17:10:48.068Z,96811.62
2019-01-11T17:13:32.220Z,96818.06
2019-01-11T17:16:14.461Z,96820.80
2019-01-11T17:19:04.281Z,96822.02
2019-01-11T17:21:54.124Z,96817.14
2019-01-11T17:24:44.149Z,96818.38
2019-01-11T17:27:34.319Z,96831.52
2019-01-11T17:30:24.479Z,96826.95
2019-01-11T17:33:15.134Z,96832.45
2019-01-11T17:35:57.597Z,96831.53
2019-01-11T17:38:47.435Z,96827.98
2019-01-11T17:41:37.069Z,96828.16
2019-01-11T17:44:19.613Z,96827.95
2019-01-11T17:47:27.246Z,96829.07
2019-01-11T17:50:14.826Z,96832.48
2019-01-11T17:53:04.716Z,96830.13
2019-01-11T17:55:54.947Z,96827.45
2019-01-11T17:58:44.791Z,96837.36
2019-01-11T18:01:34.711Z,96846.65
2019-01-11T18:04:24.637Z,96843.94
2019-01-11T18:07:14.707Z,96846.84
2019-01-11T18:13:00.121Z,96842.08
2019-01-11T18:15:50.009Z,96853.45
2019-01-11T18:18:32.714Z,96844.00
2019-01-11T18:21:22.602Z,96850.82
2019-01-11T18:24:10.870Z,96858.37
2019-01-11T18:26:52.915Z,96870.57
2019-01-11T18:35:10.971Z,96867.05
2019-01-11T18:38:01.078Z,96867.84
2019-01-11T18:40:43.820Z,96840.38
2019-01-11T18:46:37.233Z,96857.19
2019-01-11T18:49:27.350Z,96870.08
2019-01-11T18:52:10.096Z,96864.36
2019-01-11T18:55:01.079Z,96872.60
2019-01-11T18:57:46.592Z,96877.16
2019-01-11T19:00:36.501Z,96878.29
2019-01-11T19:03:19.326Z,96867.09
2019-01-11T19:09:10.302Z,96862.48
2019-01-11T19:11:52.747Z,96850.49
2019-01-11T19:14:35.555Z,96854.08
2019-01-11T19:17:25.500Z,96866.34
2019-01-11T19:20:20.812Z,96853.52
2019-01-11T19:23:10.601Z,96861.30
2019-01-11T19:26:00.392Z,96857.91
2019-01-11T19:28:44.180Z,96868.87
2019-01-11T19:34:40.031Z,96847.64
2019-01-11T19:37:29.180Z,96858.92
2019-01-11T19:43:05.332Z,96860.60
2019-01-11T19:45:55.154Z,96855.09
2019-01-11T19:48:39.788Z,96851.23
2019-01-11T19:51:29.638Z,96853.16
2019-01-11T19:54:12.084Z,96867.30
2019-01-11T19:57:01.904Z,96865.16
2019-01-11T19:59:44.785Z,96851.17
2019-01-11T20:02:34.559Z,96875.38
2019-01-11T20:05:24.649Z,96874.48
2019-01-11T20:08:09.596Z,96882.02
2019-01-11T20:10:52.198Z,96877.16
2019-01-11T20:13:42.074Z,96884.80
2019-01-11T20:16:31.938Z,96884.98
2019-01-11T20:19:22.130Z,96877.80
2019-01-11T20:22:11.981Z,96875.02
2019-01-11T20:25:22.370Z,96880.89
2019-01-11T20:28:13.188Z,96872.01
2019-01-11T20:31:02.976Z,96873.50
2019-01-11T20:33:45.867Z,96881.77
2019-01-11T20:42:54.923Z,96885.55
2019-01-11T20:45:25.706Z,96887.38
2019-01-11T20:51:12.189Z,96883.69
2019-01-11T20:54:01.989Z,96891.49
2019-01-11T20:56:44.209Z,96889.61
2019-01-11T20:59:34.303Z,96893.37
2019-01-11T21:02:16.867Z,96889.25
2019-01-11T21:08:10.793Z,96891.87
2019-01-11T21:11:00.878Z,96889.20
2019-01-11T21:13:43.454Z,96890.16
2019-01-11T21:16:47.499Z,96891.49
2019-01-11T21:19:17.263Z,96869.61
2019-01-11T21:22:07.071Z,96887.77
2019-01-11T21:25:00.247Z,96892.32
2019-01-11T21:27:41.483Z,96887.33
2019-01-11T21:30:32.013Z,96877.80
2019-01-11T21:33:21.825Z,96888.41
2019-01-11T21:36:04.291Z,96888.55
2019-01-11T21:38:54.175Z,96898.63
2019-01-11T21:41:46.073Z,96875.17
2019-01-11T21:44:36.035Z,96883.16
2019-01-11T21:47:26.094Z,96879.94
2019-01-11T21:56:26.893Z,96886.88
2019-01-11T21:59:16.725Z,96870.70
2019-01-11T22:01:58.855Z,96886.14
2019-01-11T22:04:48.671Z,96884.54
2019-01-11T22:07:31.445Z,96873.61
2019-01-11T22:10:21.611Z,96893.58
2019-01-11T22:13:03.977Z,96889.61
2019-01-11T22:15:53.857Z,96888.45
2019-01-11T22:21:33.271Z,96895.31
2019-01-11T22:24:23.210Z,96900.35
2019-01-11T22:27:13.331Z,96900.17
2019-01-11T22:30:03.788Z,96897.49
2019-01-11T22:32:53.587Z,96896.16
2019-01-11T22:35:36.078Z,96882.41
2019-01-11T22:38:25.968Z,96899.21
2019-01-11T22:41:15.859Z,96901.84
2019-01-11T22:44:05.936Z,96904.52
2019-01-11T22:46:55.980Z,96901.51
2019-01-11T22:58:46.699Z,96902.70
2019-01-11T23:02:14.719Z,96898.47
2019-01-11T23:04:56.867Z,96902.26
2019-01-11T23:08:07.717Z,96894.98
2019-01-11T23:11:12.368Z,96899.76
2019-01-11T23:14:02.144Z,96901.36
2019-01-11T23:16:47.101Z,96903.23
2019-01-11T23:19:37.224Z,96890.80
2019-01-11T23:22:21.684Z,96907.20
2019-01-11T23:25:11.484Z,96900.41
2019-01-11T23:27:54.231Z,96895.36
2019-01-11T23:30:44.040Z,96895.90
2019-01-11T23:33:30.557Z,96886.09
2019-01-11T23:36:20.382Z,96893.53
2019-01-11T23:39:04.872Z,96884.66
2019-01-11T23:44:56.001Z,96884.45
2019-01-11T23:47:39.068Z,96879.09
2019-01-11T23:50:28.868Z,96886.69
2019-01-11T23:53:11.496Z,96893.38
2019-01-11T23:56:01.372Z,96900.08
2019-01-11T23:58:51.165Z,96906.77
